Time;durP1;ratioP1;P1;durP2;ratioP2;P2;SDS_P1;SDS_P2;PMS_P1;PMS_P2;Temp;Humidity;BMP_temperature;BMP_pressure;BME280_temperature;BME280_humidity;BME280_pressure;Samples;Min_cycle;Max_cycle;Signal;HPM_P1;HPM_P2
2021/09/16 00:01:15;;;;;;;;;;;;;;;;;;5030509;28;19929;-66
2021/09/16 00:03:42;;;;;;;;;;;;;;;;;;5037364;28;19925;-65
2021/09/16 00:06:09;;;;;;;;;;;;;;;;;;5032508;28;19925;-65
2021/09/16 00:08:35;;;;;;;;;;;;;;;;;;5031276;28;19940;-65
2021/09/16 00:11:02;;;;;;;;;;;;;;;;;;5032029;28;19932;-66
2021/09/16 00:13:29;;;;;;;;;;;;;;;;;;5037743;28;20311;-65
2021/09/16 00:15:56;;;;;;;;;;;;;;;;;;5038184;28;19931;-65
2021/09/16 00:18:23;;;;;;;;;;;;;;;;;;5031677;28;19932;-64
2021/09/16 00:20:50;;;;;;;;;;;;;;;;;;5032189;28;19933;-65
2021/09/16 00:23:17;;;;;;;;;;;;;;;;;;5038854;28;19925;-66
2021/09/16 00:25:44;;;;;;;;;;;;;;;;;;5038516;28;19925;-66
2021/09/16 00:28:11;;;;;;;;;;;;;;;;;;5033303;28;19929;-66
2021/09/16 00:30:38;;;;;;;;;;;;;;;;;;5031471;28;19947;-66
2021/09/16 00:33:05;;;;;;;;;;;;;;;;;;5030712;28;19931;-65
2021/09/16 00:35:32;;;;;;;;;;;;;;;;;;5033643;28;19932;-66
2021/09/16 00:37:59;;;;;;;;;;;;;;;;;;5033084;28;19932;-66
2021/09/16 00:40:26;;;;;;;;;;;;;;;;;;5030631;28;20013;-66
2021/09/16 00:42:53;;;;;;;;;;;;;;;;;;5044210;28;19925;-65
2021/09/16 00:45:20;;;;;;;;;;;;;;;;;;5050845;28;19931;-66
2021/09/16 00:47:47;;;;;;;;;;;;;;;;;;5052096;28;20016;-66
2021/09/16 00:50:14;;;;;;;;;;;;;;;;;;5047324;28;19933;-66
2021/09/16 00:52:41;;;;;;;;;;;;;;;;;;5051023;28;19925;-66
2021/09/16 00:55:08;;;;;;;;;;;;;;;;;;5050866;28;19932;-66
2021/09/16 00:57:35;;;;;;;;;;;;;;;;;;5050716;28;19929;-66
2021/09/16 01:00:02;;;;;;;;;;;;;;;;;;5051746;28;20389;-66
2021/09/16 01:02:29;;;;;;;;;;;;;;;;;;5050579;28;19924;-67
2021/09/16 01:04:56;;;;;;;;;;;;;;;;;;5051676;28;19936;-66
2021/09/16 01:07:23;;;;;;;;;;;;;;;;;;5051696;28;19925;-66
2021/09/16 01:09:50;;;;;;;;;;;;;;;;;;5055426;28;19931;-66
2021/09/16 01:12:17;;;;;;;;;;;;;;;;;;5058437;28;20510;-66
2021/09/16 01:14:44;;;;;;;;;;;;;;;;;;5056120;28;20332;-66
2021/09/16 01:17:11;;;;;;;;;;;;;;;;;;5053416;28;20003;-66
2021/09/16 01:19:38;;;;;;;;;;;;;;;;;;5058018;28;19924;-65
2021/09/16 01:22:05;;;;;;;;;;;;;;;;;;5058020;28;19929;-65
2021/09/16 01:24:32;;;;;;;;;;;;;;;;;;5052172;28;19931;-64
2021/09/16 01:26:59;;;;;;;;;;;;;;;;;;5052800;28;20400;-64
2021/09/16 01:29:26;;;;;;;;;;;;;;;;;;5055661;28;20206;-64
2021/09/16 01:31:53;;;;;;;;;;;;;;;;;;5057914;28;19924;-64
2021/09/16 01:34:20;;;;;;;;;;;;;;;;;;5056165;28;19924;-64
2021/09/16 01:36:47;;;;;;;;;;;;;;;;;;5052782;28;19952;-65
2021/09/16 01:39:14;;;;;;;;;;;;;;;;;;5058538;28;19928;-65
2021/09/16 01:41:41;;;;;;;;;;;;;;;;;;5057363;28;20247;-64
2021/09/16 01:44:08;;;;;;;;;;;;;;;;;;5042398;28;19925;-64
2021/09/16 01:46:35;;;;;;;;;;;;;;;;;;5039402;28;20388;-66
2021/09/16 01:49:03;;;;;;;;;;;;;;;;;;5033365;28;19925;-65
2021/09/16 01:51:30;;;;;;;;;;;;;;;;;;5034814;28;20386;-65
2021/09/16 01:53:57;;;;;;;;;;;;;;;;;;5040729;28;19931;-65
2021/09/16 01:56:24;;;;;;;;;;;;;;;;;;5039426;28;20020;-65
2021/09/16 01:58:51;;;;;;;;;;;;;;;;;;5033247;28;19925;-66
2021/09/16 02:01:18;;;;;;;;;;;;;;;;;;5033003;28;20400;-65
2021/09/16 02:03:45;;;;;;;;;;;;;;;;;;5040776;28;19935;-65
2021/09/16 02:06:12;;;;;;;;;;;;;;;;;;5039441;28;19925;-66
2021/09/16 02:08:39;;;;;;;;;;;;;;;;;;5033191;28;20305;-65
2021/09/16 02:11:06;;;;;;;;;;;;;;;;;;5035887;28;20285;-65
2021/09/16 02:13:33;;;;;;;;;;;;;;;;;;5040025;28;19925;-66
2021/09/16 02:16:00;;;;;;;;;;;;;;;;;;5040032;28;19932;-66
2021/09/16 02:18:27;;;;;;;;;;;;;;;;;;5032427;28;19930;-65
2021/09/16 02:20:54;;;;;;;;;;;;;;;;;;5034790;28;19925;-66
2021/09/16 02:23:21;;;;;;;;;;;;;;;;;;5039692;28;19931;-66
2021/09/16 02:25:48;;;;;;;;;;;;;;;;;;5040407;28;19931;-65
2021/09/16 02:28:15;;;;;;;;;;;;;;;;;;5035363;28;19925;-66
2021/09/16 02:30:42;;;;;;;;;;;;;;;;;;5034231;28;19933;-66
2021/09/16 02:33:09;;;;;;;;;;;;;;;;;;5039682;28;19979;-65
2021/09/16 02:35:36;;;;;;;;;;;;;;;;;;5037928;28;20020;-66
2021/09/16 02:38:03;;;;;;;;;;;;;;;;;;5033086;28;20309;-65
2021/09/16 02:40:30;;;;;;;;;;;;;;;;;;5032811;28;19925;-66
2021/09/16 02:42:57;;;;;;;;;;;;;;;;;;5046886;28;19935;-65
2021/09/16 02:45:24;;;;;;;;;;;;;;;;;;5051139;28;20008;-66
2021/09/16 02:47:51;;;;;;;;;;;;;;;;;;5053221;28;19924;-65
2021/09/16 02:50:18;;;;;;;;;;;;;;;;;;5047750;28;19935;-65
2021/09/16 02:52:45;;;;;;;;;;;;;;;;;;5057085;28;20018;-66
2021/09/16 02:55:12;;;;;;;;;;;;;;;;;;5051479;28;20304;-66
2021/09/16 02:57:39;;;;;;;;;;;;;;;;;;5052451;28;19928;-65
2021/09/16 03:00:05;;;;;;;;;;;;;;;;;;5053666;28;19925;-64
2021/09/16 03:02:32;;;;;;;;;;;;;;;;;;5049336;28;19928;-65
2021/09/16 03:04:59;;;;;;;;;;;;;;;;;;5053052;28;20359;-65
2021/09/16 03:07:26;;;;;;;;;;;;;;;;;;5048118;28;20137;-65
2021/09/16 03:09:53;;;;;;;;;;;;;;;;;;5053243;28;19925;-65
2021/09/16 03:12:20;;;;;;;;;;;;;;;;;;5057061;28;19924;-65
2021/09/16 03:14:47;;;;;;;;;;;;;;;;;;5051848;28;20331;-66
2021/09/16 03:17:14;;;;;;;;;;;;;;;;;;5052761;28;19932;-64
2021/09/16 03:19:41;;;;;;;;;;;;;;;;;;5053628;28;19932;-64
2021/09/16 03:22:08;;;;;;;;;;;;;;;;;;5056573;28;19931;-64
2021/09/16 03:24:35;;;;;;;;;;;;;;;;;;5051951;28;19925;-64
2021/09/16 03:27:02;;;;;;;;;;;;;;;;;;5051481;28;19925;-65
2021/09/16 03:29:29;;;;;;;;;;;;;;;;;;5052044;28;19931;-64
2021/09/16 03:31:56;;;;;;;;;;;;;;;;;;5055982;28;19931;-65
2021/09/16 03:34:23;;;;;;;;;;;;;;;;;;5052536;28;19929;-65
2021/09/16 03:36:50;;;;;;;;;;;;;;;;;;5050750;28;20389;-65
2021/09/16 03:39:17;;;;;;;;;;;;;;;;;;5052472;28;20301;-65
2021/09/16 03:41:44;;;;;;;;;;;;;;;;;;5055493;28;19932;-65
2021/09/16 03:44:11;;;;;;;;;;;;;;;;;;5089478;22;19928;-69
2021/09/16 03:46:38;;;;;;;;;;;;;;;;;;5070725;28;19925;-69
2021/09/16 03:49:05;;;;;;;;;;;;;;;;;;5070791;28;20008;-68
2021/09/16 03:51:32;;;;;;;;;;;;;;;;;;5072858;28;19971;-71
2021/09/16 03:53:59;;;;;;;;;;;;;;;;;;5075479;28;19925;-70
2021/09/16 03:56:26;;;;;;;;;;;;;;;;;;5071980;28;19924;-71
2021/09/16 03:58:53;;;;;;;;;;;;;;;;;;5072060;28;19925;-71
2021/09/16 04:01:20;;;;;;;;;;;;;;;;;;5071680;28;20410;-70
2021/09/16 04:03:46;;;;;;;;;;;;;;;;;;5071654;28;19935;-70
2021/09/16 04:06:13;;;;;;;;;;;;;;;;;;5072177;28;19947;-71
2021/09/16 04:08:40;;;;;;;;;;;;;;;;;;5071567;28;19924;-70
2021/09/16 04:11:07;;;;;;;;;;;;;;;;;;5071546;28;20414;-70
2021/09/16 04:13:34;;;;;;;;;;;;;;;;;;5072046;28;19932;-71
2021/09/16 04:16:01;;;;;;;;;;;;;;;;;;5071742;28;19931;-71
2021/09/16 04:18:28;;;;;;;;;;;;;;;;;;5072017;28;19924;-70
2021/09/16 04:20:55;;;;;;;;;;;;;;;;;;5071602;28;19928;-69
2021/09/16 04:23:22;;;;;;;;;;;;;;;;;;5072165;28;19928;-71
2021/09/16 04:25:49;;;;;;;;;;;;;;;;;;5071164;28;19935;-70
2021/09/16 04:28:16;;;;;;;;;;;;;;;;;;5071962;28;20465;-70
2021/09/16 04:30:43;;;;;;;;;;;;;;;;;;5071548;28;20375;-70
2021/09/16 04:33:10;;;;;;;;;;;;;;;;;;5076007;28;19924;-70
2021/09/16 04:35:37;;;;;;;;;;;;;;;;;;5077273;28;19924;-70
2021/09/16 04:38:04;;;;;;;;;;;;;;;;;;5070008;28;19924;-71
2021/09/16 04:40:31;;;;;;;;;;;;;;;;;;5071477;28;19931;-71
2021/09/16 04:42:58;;;;;;;;;;;;;;;;;;5088501;28;19924;-70
2021/09/16 04:45:25;;;;;;;;;;;;;;;;;;5094544;28;20263;-70
2021/09/16 04:47:52;;;;;;;;;;;;;;;;;;5094187;28;19924;-70
2021/09/16 04:50:19;;;;;;;;;;;;;;;;;;5093577;28;20011;-70
2021/09/16 04:52:46;;;;;;;;;;;;;;;;;;5094154;28;19928;-70
2021/09/16 04:55:13;;;;;;;;;;;;;;;;;;5094652;28;20372;-70
2021/09/16 04:57:40;;;;;;;;;;;;;;;;;;5094307;28;20291;-69
2021/09/16 05:00:07;;;;;;;;;;;;;;;;;;5093354;28;19928;-71
2021/09/16 05:02:34;;;;;;;;;;;;;;;;;;5093869;28;19924;-70
2021/09/16 05:05:01;;;;;;;;;;;;;;;;;;5091566;28;20015;-70
2021/09/16 05:07:28;;;;;;;;;;;;;;;;;;5093681;28;20281;-71
2021/09/16 05:09:54;;;;;;;;;;;;;;;;;;5093668;28;19935;-70
2021/09/16 05:12:21;;;;;;;;;;;;;;;;;;5090025;28;20003;-71
2021/09/16 05:14:48;;;;;;;;;;;;;;;;;;5091981;28;19924;-71
2021/09/16 05:17:15;;;;;;;;;;;;;;;;;;5093481;28;20319;-69
2021/09/16 05:19:42;;;;;;;;;;;;;;;;;;5093490;28;19924;-71
2021/09/16 05:22:09;;;;;;;;;;;;;;;;;;5093345;28;20287;-70
2021/09/16 05:24:36;;;;;;;;;;;;;;;;;;5093374;28;20435;-69
2021/09/16 05:27:03;;;;;;;;;;;;;;;;;;5093492;28;19935;-70
2021/09/16 05:29:30;;;;;;;;;;;;;;;;;;5093316;28;20327;-70
2021/09/16 05:31:57;;;;;;;;;;;;;;;;;;5093302;28;19924;-71
2021/09/16 05:34:24;;;;;;;;;;;;;;;;;;5092855;28;19931;-71
2021/09/16 05:36:51;;;;;;;;;;;;;;;;;;5093367;28;20006;-70
2021/09/16 05:39:18;;;;;;;;;;;;;;;;;;5092874;28;19930;-71
2021/09/16 05:41:45;;;;;;;;;;;;;;;;;;5093396;28;19928;-72
2021/09/16 05:44:12;;;;;;;;;;;;;;;;;;5030885;28;1776671;-71
2021/09/16 05:46:38;;;;;;;;;;;;;;;;;;5094699;28;20398;-69
2021/09/16 05:49:05;;;;;;;;;;;;;;;;;;5093762;28;19932;-71
2021/09/16 05:51:32;;;;;;;;;;;;;;;;;;5094540;28;19931;-70
2021/09/16 05:53:59;;;;;;;;;;;;;;;;;;5093423;28;20046;-70
2021/09/16 05:56:26;;;;;;;;;;;;;;;;;;5093947;28;19931;-70
2021/09/16 05:58:54;;;;;;;;;;;;;;;;;;5093740;28;19924;-69
2021/09/16 06:01:21;;;;;;;;;;;;;;;;;;5093483;28;19924;-70
2021/09/16 06:03:48;;;;;;;;;;;;;;;;;;5094046;28;19932;-69
2021/09/16 06:06:15;;;;;;;;;;;;;;;;;;5093775;28;19928;-71
2021/09/16 06:08:43;;;;;;;;;;;;;;;;;;5093963;28;20365;-71
2021/09/16 06:11:10;;;;;;;;;;;;;;;;;;5093382;28;19928;-70
2021/09/16 06:13:37;;;;;;;;;;;;;;;;;;5093578;28;19930;-68
2021/09/16 06:16:04;;;;;;;;;;;;;;;;;;5093341;28;19931;-70
2021/09/16 06:18:31;;;;;;;;;;;;;;;;;;5093632;28;19931;-69
2021/09/16 06:21:00;;;;;;;;;;;;;;;;;;5092724;28;20299;-70
2021/09/16 06:23:27;;;;;;;;;;;;;;;;;;5093557;28;19924;-70
2021/09/16 06:25:54;;;;;;;;;;;;;;;;;;5093351;28;19931;-71
2021/09/16 06:28:21;;;;;;;;;;;;;;;;;;5093344;28;19924;-70
2021/09/16 06:30:48;;;;;;;;;;;;;;;;;;5093109;28;20288;-72
2021/09/16 06:33:15;;;;;;;;;;;;;;;;;;5093333;28;19958;-69
2021/09/16 06:35:42;;;;;;;;;;;;;;;;;;5092968;28;20039;-70
2021/09/16 06:38:09;;;;;;;;;;;;;;;;;;5093870;28;19924;-71
2021/09/16 06:40:36;;;;;;;;;;;;;;;;;;5092710;28;20011;-70
2021/09/16 06:43:03;;;;;;;;;;;;;;;;;;5092977;28;19925;-70
2021/09/16 06:45:30;;;;;;;;;;;;;;;;;;5092699;28;19931;-70
2021/09/16 06:47:57;;;;;;;;;;;;;;;;;;5093351;28;19924;-70
2021/09/16 06:50:24;;;;;;;;;;;;;;;;;;5092545;28;19924;-71
2021/09/16 06:52:51;;;;;;;;;;;;;;;;;;5092904;28;19924;-70
2021/09/16 06:55:18;;;;;;;;;;;;;;;;;;5092655;28;19924;-70
2021/09/16 06:57:44;;;;;;;;;;;;;;;;;;5092416;28;19924;-68
2021/09/16 07:00:11;;;;;;;;;;;;;;;;;;5092563;28;19924;-69
2021/09/16 07:02:38;;;;;;;;;;;;;;;;;;5092560;28;19930;-69
2021/09/16 07:05:05;;;;;;;;;;;;;;;;;;5091794;28;20430;-71
2021/09/16 07:07:32;;;;;;;;;;;;;;;;;;5086090;28;19931;-69
2021/09/16 07:09:59;;;;;;;;;;;;;;;;;;5092170;28;20407;-72
2021/09/16 07:12:26;;;;;;;;;;;;;;;;;;5092391;28;19932;-69
2021/09/16 07:14:53;;;;;;;;;;;;;;;;;;5092749;28;20307;-71
2021/09/16 07:17:20;;;;;;;;;;;;;;;;;;5092964;28;20307;-69
2021/09/16 07:19:47;;;;;;;;;;;;;;;;;;5091948;28;19924;-69
2021/09/16 07:22:14;;;;;;;;;;;;;;;;;;5092558;28;19946;-71
2021/09/16 07:24:41;;;;;;;;;;;;;;;;;;5092129;28;19931;-70
2021/09/16 07:27:08;;;;;;;;;;;;;;;;;;5092304;28;19939;-69
2021/09/16 07:29:35;;;;;;;;;;;;;;;;;;5091960;28;19931;-70
2021/09/16 07:32:02;;;;;;;;;;;;;;;;;;5092236;28;19940;-71
2021/09/16 07:34:29;;;;;;;;;;;;;;;;;;5089670;28;19968;-69
2021/09/16 07:36:56;;;;;;;;;;;;;;;;;;5092154;28;19928;-70
2021/09/16 07:39:23;;;;;;;;;;;;;;;;;;5091705;28;19924;-71
2021/09/16 07:41:50;;;;;;;;;;;;;;;;;;5092847;28;19924;-69
2021/09/16 07:44:17;;;;;;;;;;;;;;;;;;5092093;28;19928;-70
2021/09/16 07:46:44;;;;;;;;;;;;;;;;;;5092792;28;19928;-69
2021/09/16 07:49:11;;;;;;;;;;;;;;;;;;5092367;28;20307;-70
2021/09/16 07:51:38;;;;;;;;;;;;;;;;;;5092859;28;19924;-69
2021/09/16 07:54:05;;;;;;;;;;;;;;;;;;5091855;28;19999;-70
2021/09/16 07:56:31;;;;;;;;;;;;;;;;;;5093115;28;19928;-69
2021/09/16 07:58:58;;;;;;;;;;;;;;;;;;5092326;28;20011;-70
2021/09/16 08:01:26;;;;;;;;;;;;;;;;;;5092270;28;20330;-69
2021/09/16 08:03:52;;;;;;;;;;;;;;;;;;5092361;28;20043;-71
2021/09/16 08:06:19;;;;;;;;;;;;;;;;;;5092332;28;20306;-69
2021/09/16 08:08:46;;;;;;;;;;;;;;;;;;5092865;28;19928;-71
2021/09/16 08:11:13;;;;;;;;;;;;;;;;;;5091774;28;19982;-70
2021/09/16 08:13:40;;;;;;;;;;;;;;;;;;5092368;28;19931;-69
2021/09/16 08:16:07;;;;;;;;;;;;;;;;;;5091378;28;20384;-70
2021/09/16 08:18:34;;;;;;;;;;;;;;;;;;5092945;28;19928;-68
2021/09/16 08:21:01;;;;;;;;;;;;;;;;;;5091348;28;20010;-71
2021/09/16 08:23:28;;;;;;;;;;;;;;;;;;5092396;28;20025;-70
2021/09/16 08:25:55;;;;;;;;;;;;;;;;;;5091984;28;20398;-70
2021/09/16 08:28:22;;;;;;;;;;;;;;;;;;5092589;28;20023;-69
2021/09/16 08:30:49;;;;;;;;;;;;;;;;;;5091270;28;19928;-69
2021/09/16 08:33:16;;;;;;;;;;;;;;;;;;5092044;28;20421;-69
2021/09/16 08:35:43;;;;;;;;;;;;;;;;;;5091676;28;19964;-69
2021/09/16 08:38:10;;;;;;;;;;;;;;;;;;5091879;28;20322;-69
2021/09/16 08:40:37;;;;;;;;;;;;;;;;;;5091780;28;20355;-70
2021/09/16 08:43:04;;;;;;;;;;;;;;;;;;5091720;28;20425;-70
2021/09/16 08:45:31;;;;;;;;;;;;;;;;;;5091679;28;19932;-70
2021/09/16 08:47:58;;;;;;;;;;;;;;;;;;5091540;28;19924;-70
2021/09/16 08:50:25;;;;;;;;;;;;;;;;;;5090171;28;19928;-70
2021/09/16 08:52:52;;;;;;;;;;;;;;;;;;5090944;28;19924;-71
2021/09/16 08:55:19;;;;;;;;;;;;;;;;;;5090908;28;19930;-70
2021/09/16 08:57:45;;;;;;;;;;;;;;;;;;5091139;28;19934;-71
2021/09/16 09:00:12;;;;;;;;;;;;;;;;;;5090699;28;20304;-72
2021/09/16 09:02:39;;;;;;;;;;;;;;;;;;5091281;28;19931;-71
2021/09/16 09:05:06;;;;;;;;;;;;;;;;;;5091195;28;19924;-70
2021/09/16 09:07:33;;;;;;;;;;;;;;;;;;5091197;28;20376;-70
2021/09/16 09:10:00;;;;;;;;;;;;;;;;;;5090894;28;19924;-70
2021/09/16 09:12:28;;;;;;;;;;;;;;;;;;5090859;28;19967;-71
2021/09/16 09:14:55;;;;;;;;;;;;;;;;;;5090537;28;19927;-71
2021/09/16 09:17:22;;;;;;;;;;;;;;;;;;5090477;28;20332;-71
2021/09/16 09:19:49;;;;;;;;;;;;;;;;;;5090448;28;19930;-71
2021/09/16 09:22:16;;;;;;;;;;;;;;;;;;5090695;28;19931;-70
2021/09/16 09:24:43;;;;;;;;;;;;;;;;;;5090879;28;20444;-71
2021/09/16 09:27:10;;;;;;;;;;;;;;;;;;5090714;28;19924;-70
2021/09/16 09:29:37;;;;;;;;;;;;;;;;;;5093882;28;19927;-70
2021/09/16 09:32:05;;;;;;;;;;;;;;;;;;5094207;28;19924;-71
2021/09/16 09:34:32;;;;;;;;;;;;;;;;;;5094222;28;20022;-69
2021/09/16 09:36:59;;;;;;;;;;;;;;;;;;5094436;28;19932;-70
2021/09/16 09:39:26;;;;;;;;;;;;;;;;;;5093917;28;19924;-70
2021/09/16 09:44:29;;;;;;;;;;;;;;;;;;5092503;28;19924;-67
2021/09/16 09:46:56;;;;;;;;;;;;;;;;;;5094670;28;19924;-68
2021/09/16 09:49:23;;;;;;;;;;;;;;;;;;5093751;28;19931;-67
2021/09/16 09:51:51;;;;;;;;;;;;;;;;;;5094304;28;19924;-68
2021/09/16 09:54:18;;;;;;;;;;;;;;;;;;5094156;28;20406;-68
2021/09/16 09:56:45;;;;;;;;;;;;;;;;;;5093738;28;20098;-68
2021/09/16 09:59:12;;;;;;;;;;;;;;;;;;5094007;28;19931;-68
2021/09/16 10:01:39;;;;;;;;;;;;;;;;;;5094119;28;19936;-68
2021/09/16 10:04:05;;;;;;;;;;;;;;;;;;5093797;28;20280;-67
2021/09/16 10:06:32;;;;;;;;;;;;;;;;;;5093640;28;19924;-67
2021/09/16 10:08:59;;;;;;;;;;;;;;;;;;5093864;28;19924;-67
2021/09/16 10:11:26;;;;;;;;;;;;;;;;;;5093267;28;19939;-66
2021/09/16 10:13:56;;;;;;;;;;;;;;;;;;5093801;28;19936;-68
2021/09/16 10:16:23;;;;;;;;;;;;;;;;;;5087459;28;19930;-68
2021/09/16 10:18:50;;;;;;;;;;;;;;;;;;5093624;28;20315;-68
2021/09/16 10:21:19;;;;;;;;;;;;;;;;;;5093247;28;19924;-68
2021/09/16 10:23:47;;;;;;;;;;;;;;;;;;5093889;28;19983;-67
2021/09/16 10:26:14;;;;;;;;;;;;;;;;;;5093227;28;19924;-68
2021/09/16 10:28:41;;;;;;;;;;;;;;;;;;5093542;28;19932;-67
2021/09/16 10:31:08;;;;;;;;;;;;;;;;;;5093340;28;19924;-68
2021/09/16 10:33:35;;;;;;;;;;;;;;;;;;5093189;28;19935;-66
2021/09/16 10:36:02;;;;;;;;;;;;;;;;;;5093233;28;19925;-68
2021/09/16 10:38:29;;;;;;;;;;;;;;;;;;5093217;28;20084;-68
2021/09/16 10:40:56;;;;;;;;;;;;;;;;;;5091600;28;19931;-68
2021/09/16 10:43:23;;;;;;;;;;;;;;;;;;5094213;28;19947;-68
2021/09/16 10:45:50;;;;;;;;;;;;;;;;;;5093944;28;19928;-68
2021/09/16 10:48:17;;;;;;;;;;;;;;;;;;5094063;28;19924;-69
2021/09/16 10:50:44;;;;;;;;;;;;;;;;;;5093317;28;20311;-67
2021/09/16 10:53:11;;;;;;;;;;;;;;;;;;5094334;28;19924;-68
2021/09/16 10:55:37;;;;;;;;;;;;;;;;;;5094021;28;20321;-66
2021/09/16 10:58:04;;;;;;;;;;;;;;;;;;5094393;28;19928;-68
2021/09/16 11:00:31;;;;;;;;;;;;;;;;;;5093043;28;19924;-67
2021/09/16 11:02:58;;;;;;;;;;;;;;;;;;5092849;28;19924;-67
2021/09/16 11:05:25;;;;;;;;;;;;;;;;;;5093817;28;20306;-67
2021/09/16 11:07:53;;;;;;;;;;;;;;;;;;5098820;28;19912;-67
2021/09/16 11:10:20;;;;;;;;;;;;;;;;;;5099261;28;20345;-67
2021/09/16 11:12:47;;;;;;;;;;;;;;;;;;5094245;28;19924;-67
2021/09/16 11:15:14;;;;;;;;;;;;;;;;;;5094466;28;19933;-67
2021/09/16 11:17:41;;;;;;;;;;;;;;;;;;5095202;28;19931;-66
2021/09/16 11:20:08;;;;;;;;;;;;;;;;;;5091220;28;19947;-67
2021/09/16 11:22:35;;;;;;;;;;;;;;;;;;5093733;28;19935;-67
2021/09/16 11:25:02;;;;;;;;;;;;;;;;;;5093554;28;19927;-66
2021/09/16 11:27:29;;;;;;;;;;;;;;;;;;5093643;28;19924;-66
2021/09/16 11:29:56;;;;;;;;;;;;;;;;;;5088374;28;19924;-66
2021/09/16 11:32:23;;;;;;;;;;;;;;;;;;5092575;28;19924;-66
2021/09/16 11:34:50;;;;;;;;;;;;;;;;;;5092864;28;20031;-66
2021/09/16 11:37:18;;;;;;;;;;;;;;;;;;5092645;28;19930;-67
2021/09/16 11:39:45;;;;;;;;;;;;;;;;;;5092774;28;19932;-66
2021/09/16 11:42:12;;;;;;;;;;;;;;;;;;5092944;28;19931;-67
2021/09/16 11:44:39;;;;;;;;;;;;;;;;;;5092898;28;19924;-66
2021/09/16 11:47:06;;;;;;;;;;;;;;;;;;5092487;28;19924;-67
2021/09/16 11:49:32;;;;;;;;;;;;;;;;;;5092130;28;19931;-66
2021/09/16 11:51:59;;;;;;;;;;;;;;;;;;5092140;28;19924;-67
2021/09/16 11:54:26;;;;;;;;;;;;;;;;;;5093157;28;19940;-67
2021/09/16 11:56:53;;;;;;;;;;;;;;;;;;5092900;28;20379;-67
2021/09/16 11:59:20;;;;;;;;;;;;;;;;;;5092894;28;20307;-67
2021/09/16 12:01:47;;;;;;;;;;;;;;;;;;5092863;28;20418;-67
2021/09/16 12:04:14;;;;;;;;;;;;;;;;;;5092716;28;19931;-66
2021/09/16 12:06:41;;;;;;;;;;;;;;;;;;5097189;28;19924;-66
2021/09/16 12:09:08;;;;;;;;;;;;;;;;;;5092058;28;19931;-67
2021/09/16 12:11:35;;;;;;;;;;;;;;;;;;5091894;28;19928;-66
2021/09/16 12:14:02;;;;;;;;;;;;;;;;;;5091818;28;19930;-66
2021/09/16 12:16:29;;;;;;;;;;;;;;;;;;5092009;28;19931;-66
2021/09/16 12:18:56;;;;;;;;;;;;;;;;;;5092017;28;19924;-67
2021/09/16 12:21:23;;;;;;;;;;;;;;;;;;5091531;28;19924;-67
2021/09/16 12:23:54;;;;;;;;;;;;;;;;;;5099322;28;19930;-67
2021/09/16 12:26:22;;;;;;;;;;;;;;;;;;5103175;28;19924;-68
2021/09/16 12:28:53;;;;;;;;;;;;;;;;;;5104023;28;19928;-68
2021/09/16 12:31:25;;;;;;;;;;;;;;;;;;5102053;28;19935;-70
2021/09/16 12:33:52;;;;;;;;;;;;;;;;;;5092839;28;19928;-66
2021/09/16 12:36:19;;;;;;;;;;;;;;;;;;5089237;28;19930;-67
2021/09/16 12:38:47;;;;;;;;;;;;;;;;;;5089952;28;20372;-69
2021/09/16 12:41:14;;;;;;;;;;;;;;;;;;5094193;28;19931;-67
2021/09/16 12:43:41;;;;;;;;;;;;;;;;;;5096218;28;20003;-67
2021/09/16 12:46:09;;;;;;;;;;;;;;;;;;5092417;28;20007;-67
2021/09/16 12:48:36;;;;;;;;;;;;;;;;;;5087794;28;19923;-67
2021/09/16 12:51:03;;;;;;;;;;;;;;;;;;5091286;28;20291;-67
2021/09/16 12:53:30;;;;;;;;;;;;;;;;;;5091169;28;19924;-68
2021/09/16 12:55:57;;;;;;;;;;;;;;;;;;5091613;28;19925;-66
2021/09/16 12:58:24;;;;;;;;;;;;;;;;;;5091827;28;19951;-67
2021/09/16 13:00:51;;;;;;;;;;;;;;;;;;5090771;28;19924;-68
2021/09/16 13:03:18;;;;;;;;;;;;;;;;;;5093004;28;19931;-68
2021/09/16 13:05:45;;;;;;;;;;;;;;;;;;5095293;28;19928;-68
2021/09/16 13:08:12;;;;;;;;;;;;;;;;;;5095375;28;19971;-67
2021/09/16 13:10:39;;;;;;;;;;;;;;;;;;5094891;28;19960;-67
2021/09/16 13:13:06;;;;;;;;;;;;;;;;;;5095512;28;19925;-68
2021/09/16 13:15:34;;;;;;;;;;;;;;;;;;5095001;28;19931;-68
2021/09/16 13:18:01;;;;;;;;;;;;;;;;;;5095170;28;19932;-68
2021/09/16 13:20:28;;;;;;;;;;;;;;;;;;5094750;28;19924;-68
2021/09/16 13:22:55;;;;;;;;;;;;;;;;;;5095141;28;19928;-68
2021/09/16 13:25:22;;;;;;;;;;;;;;;;;;5094840;28;19924;-68
2021/09/16 13:27:49;;;;;;;;;;;;;;;;;;5094617;28;19935;-67
2021/09/16 13:30:16;;;;;;;;;;;;;;;;;;5094941;28;19943;-69
2021/09/16 13:32:43;;;;;;;;;;;;;;;;;;5094697;28;19925;-68
2021/09/16 13:35:10;;;;;;;;;;;;;;;;;;5095099;28;20125;-67
2021/09/16 13:37:37;;;;;;;;;;;;;;;;;;5094950;28;19928;-68
2021/09/16 13:40:04;;;;;;;;;;;;;;;;;;5094708;28;19998;-68
2021/09/16 13:42:31;;;;;;;;;;;;;;;;;;5094676;28;19924;-67
2021/09/16 13:44:58;;;;;;;;;;;;;;;;;;5094353;28;19924;-67
2021/09/16 13:47:25;;;;;;;;;;;;;;;;;;5094738;28;20392;-68
2021/09/16 13:49:52;;;;;;;;;;;;;;;;;;5089259;28;19931;-67
2021/09/16 13:52:19;;;;;;;;;;;;;;;;;;5094353;28;19924;-68
2021/09/16 13:54:46;;;;;;;;;;;;;;;;;;5094455;28;19924;-68
2021/09/16 13:57:13;;;;;;;;;;;;;;;;;;5094434;28;19924;-69
2021/09/16 13:59:39;;;;;;;;;;;;;;;;;;5094362;28;20402;-69
2021/09/16 14:02:06;;;;;;;;;;;;;;;;;;5094557;28;19931;-68
2021/09/16 14:04:33;;;;;;;;;;;;;;;;;;5094510;28;19931;-68
2021/09/16 14:07:00;;;;;;;;;;;;;;;;;;5094059;28;19924;-68
2021/09/16 14:09:27;;;;;;;;;;;;;;;;;;5094405;28;19924;-69
2021/09/16 14:11:54;;;;;;;;;;;;;;;;;;5093842;28;19960;-68
2021/09/16 14:14:21;;;;;;;;;;;;;;;;;;5094585;28;19930;-67
2021/09/16 14:16:48;;;;;;;;;;;;;;;;;;5093658;28;19947;-67
2021/09/16 14:19:15;;;;;;;;;;;;;;;;;;5093883;28;20404;-67
2021/09/16 14:21:42;;;;;;;;;;;;;;;;;;5093983;28;19924;-67
2021/09/16 14:24:09;;;;;;;;;;;;;;;;;;5087791;28;19924;-67
2021/09/16 14:26:36;;;;;;;;;;;;;;;;;;5093897;28;19939;-66
2021/09/16 14:29:03;;;;;;;;;;;;;;;;;;5093561;28;20295;-65
2021/09/16 14:31:30;;;;;;;;;;;;;;;;;;5093831;28;19924;-67
2021/09/16 14:33:57;;;;;;;;;;;;;;;;;;5093516;28;20380;-67
2021/09/16 14:36:24;;;;;;;;;;;;;;;;;;5093624;28;19935;-66
2021/09/16 14:38:51;;;;;;;;;;;;;;;;;;5093742;28;19924;-66
2021/09/16 14:41:18;;;;;;;;;;;;;;;;;;5093356;28;19935;-68
2021/09/16 14:43:45;;;;;;;;;;;;;;;;;;5093431;28;19925;-67
2021/09/16 14:46:12;;;;;;;;;;;;;;;;;;5093325;28;20040;-67
2021/09/16 14:48:39;;;;;;;;;;;;;;;;;;5093233;28;19924;-67
2021/09/16 14:51:09;;;;;;;;;;;;;;;;;;5093227;28;19931;-67
2021/09/16 14:53:36;;;;;;;;;;;;;;;;;;5093253;28;19928;-67
2021/09/16 14:56:03;;;;;;;;;;;;;;;;;;5093568;28;19936;-67
2021/09/16 14:58:30;;;;;;;;;;;;;;;;;;5093543;28;19924;-68
2021/09/16 15:00:57;;;;;;;;;;;;;;;;;;5092748;28;19924;-67
2021/09/16 15:03:24;;;;;;;;;;;;;;;;;;5092813;28;20145;-67
2021/09/16 15:05:51;;;;;;;;;;;;;;;;;;5090981;28;19930;-67
2021/09/16 15:08:18;;;;;;;;;;;;;;;;;;5093093;28;20292;-67
2021/09/16 15:10:45;;;;;;;;;;;;;;;;;;5092712;28;19924;-67
2021/09/16 15:13:12;;;;;;;;;;;;;;;;;;5092854;28;20002;-66
2021/09/16 15:15:39;;;;;;;;;;;;;;;;;;5092710;28;19932;-68
2021/09/16 15:18:06;;;;;;;;;;;;;;;;;;5092936;28;19951;-68
2021/09/16 15:20:33;;;;;;;;;;;;;;;;;;5092902;28;19971;-67
2021/09/16 15:23:00;;;;;;;;;;;;;;;;;;5092782;28;20042;-66
2021/09/16 15:25:27;;;;;;;;;;;;;;;;;;5092149;28;19931;-68
2021/09/16 15:27:54;;;;;;;;;;;;;;;;;;5088684;28;19924;-67
2021/09/16 15:30:21;;;;;;;;;;;;;;;;;;5092111;28;19931;-67
2021/09/16 15:32:48;;;;;;;;;;;;;;;;;;5092457;28;19924;-67
2021/09/16 15:35:15;;;;;;;;;;;;;;;;;;5092464;28;20299;-67
2021/09/16 15:37:42;;;;;;;;;;;;;;;;;;5092236;28;19966;-67
2021/09/16 15:40:09;;;;;;;;;;;;;;;;;;5092152;28;19924;-67
2021/09/16 15:42:36;;;;;;;;;;;;;;;;;;5092663;28;19924;-68
2021/09/16 15:45:03;;;;;;;;;;;;;;;;;;5092732;28;19934;-68
2021/09/16 15:47:30;;;;;;;;;;;;;;;;;;5092298;28;19931;-66
2021/09/16 15:49:57;;;;;;;;;;;;;;;;;;5092194;28;19950;-68
2021/09/16 15:52:24;;;;;;;;;;;;;;;;;;5092291;28;19930;-67
2021/09/16 15:54:51;;;;;;;;;;;;;;;;;;5092108;28;19924;-67
2021/09/16 15:57:18;;;;;;;;;;;;;;;;;;5091685;28;20022;-65
2021/09/16 15:59:45;;;;;;;;;;;;;;;;;;5091797;28;19934;-67
2021/09/16 16:02:12;;;;;;;;;;;;;;;;;;5091960;28;19924;-66
2021/09/16 16:04:39;;;;;;;;;;;;;;;;;;5091932;28;19946;-67
2021/09/16 16:07:06;;;;;;;;;;;;;;;;;;5091988;28;20022;-68
2021/09/16 16:09:33;;;;;;;;;;;;;;;;;;5091357;28;20390;-68
2021/09/16 16:12:00;;;;;;;;;;;;;;;;;;5092141;28;19924;-68
2021/09/16 16:14:27;;;;;;;;;;;;;;;;;;5091479;28;19967;-68
2021/09/16 16:16:54;;;;;;;;;;;;;;;;;;5091456;28;19924;-68
2021/09/16 16:19:21;;;;;;;;;;;;;;;;;;5090514;28;19930;-67
2021/09/16 16:21:48;;;;;;;;;;;;;;;;;;5091812;28;19924;-68
2021/09/16 16:24:15;;;;;;;;;;;;;;;;;;5091670;28;20106;-69
2021/09/16 16:26:41;;;;;;;;;;;;;;;;;;5091073;28;19924;-67
2021/09/16 16:29:08;;;;;;;;;;;;;;;;;;5091428;28;19930;-68
2021/09/16 16:31:35;;;;;;;;;;;;;;;;;;5091439;28;19924;-67
2021/09/16 16:34:05;;;;;;;;;;;;;;;;;;5091834;28;19924;-65
2021/09/16 16:36:32;;;;;;;;;;;;;;;;;;5091438;28;19959;-66
2021/09/16 16:38:59;;;;;;;;;;;;;;;;;;5095728;28;19923;-67
2021/09/16 16:41:26;;;;;;;;;;;;;;;;;;5095733;28;20320;-68
2021/09/16 16:43:52;;;;;;;;;;;;;;;;;;5095500;28;19930;-66
2021/09/16 16:46:19;;;;;;;;;;;;;;;;;;5095553;28;19936;-70